sensor_id;sensor_type;location;lat;lon;timestamp;temperature;humidity
23233;DHT22;11785;49.500;8.288;2023-05-10T00:01:29;13.20;99.90
23233;DHT22;11785;49.500;8.288;2023-05-10T00:03:55;13.20;99.90
23233;DHT22;11785;49.500;8.288;2023-05-10T00:06:20;13.20;99.90
23233;DHT22;11785;49.500;8.288;2023-05-10T00:08:46;13.10;99.90
23233;DHT22;11785;49.500;8.288;2023-05-10T00:11:11;13.10;99.90
23233;DHT22;11785;49.500;8.288;2023-05-10T00:13:37;13.10;99.90
23233;DHT22;11785;49.500;8.288;2023-05-10T00:16:03;13.10;99.90
23233;DHT22;11785;49.500;8.288;2023-05-10T00:18:28;13.10;99.90
23233;DHT22;11785;49.500;8.288;2023-05-10T00:20:54;13.10;99.90
23233;DHT22;11785;49.500;8.288;2023-05-10T00:23:19;13.00;99.90
23233;DHT22;11785;49.500;8.288;2023-05-10T00:25:45;13.00;99.90
23233;DHT22;11785;49.500;8.288;2023-05-10T00:28:10;13.00;99.90
23233;DHT22;11785;49.500;8.288;2023-05-10T00:30:36;13.00;99.90
23233;DHT22;11785;49.500;8.288;2023-05-10T00:33:01;13.00;99.90
23233;DHT22;11785;49.500;8.288;2023-05-10T00:35:28;13.00;99.90
23233;DHT22;11785;49.500;8.288;2023-05-10T00:37:53;12.90;99.90
23233;DHT22;11785;49.500;8.288;2023-05-10T00:40:19;12.90;99.90
23233;DHT22;11785;49.500;8.288;2023-05-10T00:42:45;12.90;99.90
23233;DHT22;11785;49.500;8.288;2023-05-10T00:45:10;12.80;99.90
23233;DHT22;11785;49.500;8.288;2023-05-10T00:47:36;12.80;99.90
23233;DHT22;11785;49.500;8.288;2023-05-10T00:50:03;12.80;99.90
23233;DHT22;11785;49.500;8.288;2023-05-10T00:52:30;12.80;99.90
23233;DHT22;11785;49.500;8.288;2023-05-10T00:54:56;12.80;99.90
23233;DHT22;11785;49.500;8.288;2023-05-10T00:57:22;12.80;99.90
23233;DHT22;11785;49.500;8.288;2023-05-10T00:59:48;12.80;99.90
23233;DHT22;11785;49.500;8.288;2023-05-10T01:02:14;12.80;99.90
23233;DHT22;11785;49.500;8.288;2023-05-10T01:04:39;12.80;99.90
23233;DHT22;11785;49.500;8.288;2023-05-10T01:07:06;12.80;99.90
23233;DHT22;11785;49.500;8.288;2023-05-10T01:09:32;12.80;99.90
23233;DHT22;11785;49.500;8.288;2023-05-10T01:12:00;12.80;99.90
23233;DHT22;11785;49.500;8.288;2023-05-10T01:14:26;12.80;99.90
23233;DHT22;11785;49.500;8.288;2023-05-10T01:16:53;12.80;99.90
23233;DHT22;11785;49.500;8.288;2023-05-10T01:19:22;12.80;99.90
23233;DHT22;11785;49.500;8.288;2023-05-10T01:24:38;12.80;99.90
23233;DHT22;11785;49.500;8.288;2023-05-10T01:35:50;12.80;99.90
23233;DHT22;11785;49.500;8.288;2023-05-10T01:38:41;12.80;99.90
23233;DHT22;11785;49.500;8.288;2023-05-10T01:44:42;12.80;99.90
23233;DHT22;11785;49.500;8.288;2023-05-10T01:47:17;12.80;99.90
23233;DHT22;11785;49.500;8.288;2023-05-10T01:49:50;12.80;99.90
23233;DHT22;11785;49.500;8.288;2023-05-10T01:52:22;12.80;99.90
23233;DHT22;11785;49.500;8.288;2023-05-10T01:54:55;12.80;99.90
23233;DHT22;11785;49.500;8.288;2023-05-10T01:57:22;12.80;99.90
23233;DHT22;11785;49.500;8.288;2023-05-10T01:59:50;12.80;99.90
23233;DHT22;11785;49.500;8.288;2023-05-10T02:02:18;12.80;99.90
23233;DHT22;11785;49.500;8.288;2023-05-10T02:04:46;12.80;99.90
23233;DHT22;11785;49.500;8.288;2023-05-10T02:07:13;12.80;99.90
23233;DHT22;11785;49.500;8.288;2023-05-10T02:09:39;12.80;99.90
23233;DHT22;11785;49.500;8.288;2023-05-10T02:12:06;12.80;99.90
23233;DHT22;11785;49.500;8.288;2023-05-10T02:14:35;12.90;99.90
23233;DHT22;11785;49.500;8.288;2023-05-10T02:17:04;12.90;99.90
23233;DHT22;11785;49.500;8.288;2023-05-10T02:19:32;12.90;99.90
23233;DHT22;11785;49.500;8.288;2023-05-10T02:21:59;12.90;99.90
23233;DHT22;11785;49.500;8.288;2023-05-10T02:24:25;13.00;99.90
23233;DHT22;11785;49.500;8.288;2023-05-10T02:26:53;13.00;99.90
23233;DHT22;11785;49.500;8.288;2023-05-10T02:29:21;13.00;99.90
23233;DHT22;11785;49.500;8.288;2023-05-10T02:31:49;13.00;99.90
23233;DHT22;11785;49.500;8.288;2023-05-10T02:34:16;13.00;99.90
23233;DHT22;11785;49.500;8.288;2023-05-10T02:36:43;13.00;99.90
23233;DHT22;11785;49.500;8.288;2023-05-10T02:39:09;13.10;99.90
23233;DHT22;11785;49.500;8.288;2023-05-10T02:41:38;13.10;99.90
23233;DHT22;11785;49.500;8.288;2023-05-10T02:44:06;13.10;99.90
23233;DHT22;11785;49.500;8.288;2023-05-10T02:46:33;13.10;99.90
23233;DHT22;11785;49.500;8.288;2023-05-10T02:48:59;13.10;99.90
23233;DHT22;11785;49.500;8.288;2023-05-10T02:51:25;13.10;99.90
23233;DHT22;11785;49.500;8.288;2023-05-10T02:53:54;13.10;99.90
23233;DHT22;11785;49.500;8.288;2023-05-10T02:56:25;13.10;99.90
23233;DHT22;11785;49.500;8.288;2023-05-10T02:58:53;13.10;99.90
23233;DHT22;11785;49.500;8.288;2023-05-10T03:01:20;13.10;99.90
23233;DHT22;11785;49.500;8.288;2023-05-10T03:03:45;13.10;99.90
23233;DHT22;11785;49.500;8.288;2023-05-10T03:06:11;13.10;99.90
23233;DHT22;11785;49.500;8.288;2023-05-10T03:08:36;13.10;99.90
23233;DHT22;11785;49.500;8.288;2023-05-10T03:11:28;13.10;99.90
23233;DHT22;11785;49.500;8.288;2023-05-10T03:16:46;13.10;99.90
23233;DHT22;11785;49.500;8.288;2023-05-10T03:19:21;13.10;99.90
23233;DHT22;11785;49.500;8.288;2023-05-10T03:21:50;13.10;99.90
23233;DHT22;11785;49.500;8.288;2023-05-10T03:24:20;13.10;99.90
23233;DHT22;11785;49.500;8.288;2023-05-10T03:26:46;13.00;99.90
23233;DHT22;11785;49.500;8.288;2023-05-10T03:29:13;13.00;99.90
23233;DHT22;11785;49.500;8.288;2023-05-10T03:31:39;13.00;99.90
23233;DHT22;11785;49.500;8.288;2023-05-10T03:34:05;13.10;99.90
23233;DHT22;11785;49.500;8.288;2023-05-10T03:36:31;13.10;99.90
23233;DHT22;11785;49.500;8.288;2023-05-10T03:38:57;13.00;99.90
23233;DHT22;11785;49.500;8.288;2023-05-10T03:41:22;13.00;99.90
23233;DHT22;11785;49.500;8.288;2023-05-10T03:43:48;13.00;99.90
23233;DHT22;11785;49.500;8.288;2023-05-10T03:46:13;12.90;99.90
23233;DHT22;11785;49.500;8.288;2023-05-10T03:48:39;12.90;99.90
23233;DHT22;11785;49.500;8.288;2023-05-10T03:51:05;12.90;99.90
23233;DHT22;11785;49.500;8.288;2023-05-10T03:53:30;12.90;99.90
23233;DHT22;11785;49.500;8.288;2023-05-10T03:55:56;12.80;99.90
23233;DHT22;11785;49.500;8.288;2023-05-10T03:58:21;12.80;99.90
23233;DHT22;11785;49.500;8.288;2023-05-10T04:00:47;12.70;99.90
23233;DHT22;11785;49.500;8.288;2023-05-10T04:03:13;12.70;99.90
23233;DHT22;11785;49.500;8.288;2023-05-10T04:05:39;12.70;99.90
23233;DHT22;11785;49.500;8.288;2023-05-10T04:08:05;12.70;99.90
23233;DHT22;11785;49.500;8.288;2023-05-10T04:10:31;12.70;99.90
23233;DHT22;11785;49.500;8.288;2023-05-10T04:12:57;12.70;99.90
23233;DHT22;11785;49.500;8.288;2023-05-10T04:15:22;12.70;99.90
23233;DHT22;11785;49.500;8.288;2023-05-10T04:17:48;12.70;99.90
23233;DHT22;11785;49.500;8.288;2023-05-10T04:20:14;12.70;99.90
23233;DHT22;11785;49.500;8.288;2023-05-10T04:22:40;12.70;99.90
23233;DHT22;11785;49.500;8.288;2023-05-10T04:25:06;12.70;99.90
23233;DHT22;11785;49.500;8.288;2023-05-10T04:27:32;12.80;99.90
23233;DHT22;11785;49.500;8.288;2023-05-10T04:29:57;12.80;99.90
23233;DHT22;11785;49.500;8.288;2023-05-10T04:32:23;12.90;99.90
23233;DHT22;11785;49.500;8.288;2023-05-10T04:34:49;12.90;99.90
23233;DHT22;11785;49.500;8.288;2023-05-10T04:37:16;12.90;99.90
23233;DHT22;11785;49.500;8.288;2023-05-10T04:39:42;12.90;99.90
23233;DHT22;11785;49.500;8.288;2023-05-10T04:42:07;13.00;99.90
23233;DHT22;11785;49.500;8.288;2023-05-10T04:44:33;13.00;99.90
23233;DHT22;11785;49.500;8.288;2023-05-10T04:46:59;13.00;99.90
23233;DHT22;11785;49.500;8.288;2023-05-10T04:49:25;13.00;99.90
23233;DHT22;11785;49.500;8.288;2023-05-10T04:51:50;13.10;99.90
23233;DHT22;11785;49.500;8.288;2023-05-10T04:54:16;13.00;99.90
23233;DHT22;11785;49.500;8.288;2023-05-10T04:56:41;13.00;99.90
23233;DHT22;11785;49.500;8.288;2023-05-10T04:59:07;13.00;99.90
23233;DHT22;11785;49.500;8.288;2023-05-10T05:01:33;13.00;99.90
23233;DHT22;11785;49.500;8.288;2023-05-10T05:03:58;13.00;99.90
23233;DHT22;11785;49.500;8.288;2023-05-10T05:06:24;13.10;99.90
23233;DHT22;11785;49.500;8.288;2023-05-10T05:08:50;13.10;99.90
23233;DHT22;11785;49.500;8.288;2023-05-10T05:11:16;13.20;99.90
23233;DHT22;11785;49.500;8.288;2023-05-10T05:13:42;13.40;99.90
23233;DHT22;11785;49.500;8.288;2023-05-10T05:16:07;13.50;99.90
23233;DHT22;11785;49.500;8.288;2023-05-10T05:18:33;13.60;99.90
23233;DHT22;11785;49.500;8.288;2023-05-10T05:20:59;13.60;99.70
23233;DHT22;11785;49.500;8.288;2023-05-10T05:23:24;13.70;98.80
23233;DHT22;11785;49.500;8.288;2023-05-10T05:25:51;13.80;98.30
23233;DHT22;11785;49.500;8.288;2023-05-10T05:28:17;13.80;98.40
23233;DHT22;11785;49.500;8.288;2023-05-10T05:30:43;13.80;98.60
23233;DHT22;11785;49.500;8.288;2023-05-10T05:33:09;13.80;98.40
23233;DHT22;11785;49.500;8.288;2023-05-10T05:35:34;13.80;98.40
23233;DHT22;11785;49.500;8.288;2023-05-10T05:38:00;13.90;98.00
23233;DHT22;11785;49.500;8.288;2023-05-10T05:40:25;13.90;98.10
23233;DHT22;11785;49.500;8.288;2023-05-10T05:42:51;14.00;98.20
23233;DHT22;11785;49.500;8.288;2023-05-10T05:45:16;14.20;96.20
23233;DHT22;11785;49.500;8.288;2023-05-10T05:47:42;14.30;96.30
23233;DHT22;11785;49.500;8.288;2023-05-10T05:50:08;14.40;95.80
23233;DHT22;11785;49.500;8.288;2023-05-10T05:52:33;14.40;94.50
23233;DHT22;11785;49.500;8.288;2023-05-10T05:54:59;14.50;94.50
23233;DHT22;11785;49.500;8.288;2023-05-10T05:57:25;14.60;93.80
23233;DHT22;11785;49.500;8.288;2023-05-10T05:59:51;14.70;93.20
23233;DHT22;11785;49.500;8.288;2023-05-10T06:02:17;14.80;92.30
23233;DHT22;11785;49.500;8.288;2023-05-10T06:04:43;14.70;92.30
23233;DHT22;11785;49.500;8.288;2023-05-10T06:07:08;14.80;92.60
23233;DHT22;11785;49.500;8.288;2023-05-10T06:09:34;14.80;92.00
23233;DHT22;11785;49.500;8.288;2023-05-10T06:11:59;14.80;92.80
23233;DHT22;11785;49.500;8.288;2023-05-10T06:14:25;14.70;92.70
23233;DHT22;11785;49.500;8.288;2023-05-10T06:16:50;14.70;92.80
23233;DHT22;11785;49.500;8.288;2023-05-10T06:19:16;14.70;92.80
23233;DHT22;11785;49.500;8.288;2023-05-10T06:21:41;14.80;92.30
23233;DHT22;11785;49.500;8.288;2023-05-10T06:24:07;14.80;91.70
23233;DHT22;11785;49.500;8.288;2023-05-10T06:26:33;15.00;90.90
23233;DHT22;11785;49.500;8.288;2023-05-10T06:28:59;15.00;90.40
23233;DHT22;11785;49.500;8.288;2023-05-10T06:31:24;15.10;89.60
23233;DHT22;11785;49.500;8.288;2023-05-10T06:33:50;15.20;88.90
23233;DHT22;11785;49.500;8.288;2023-05-10T06:36:16;15.10;88.10
23233;DHT22;11785;49.500;8.288;2023-05-10T06:38:41;15.10;88.10
23233;DHT22;11785;49.500;8.288;2023-05-10T06:41:07;15.10;88.00
23233;DHT22;11785;49.500;8.288;2023-05-10T06:43:33;15.20;88.30
23233;DHT22;11785;49.500;8.288;2023-05-10T06:45:59;15.20;88.20
23233;DHT22;11785;49.500;8.288;2023-05-10T06:48:24;15.20;86.30
23233;DHT22;11785;49.500;8.288;2023-05-10T06:50:50;15.10;86.10
23233;DHT22;11785;49.500;8.288;2023-05-10T06:53:15;15.20;85.60
23233;DHT22;11785;49.500;8.288;2023-05-10T06:55:41;15.20;85.00
23233;DHT22;11785;49.500;8.288;2023-05-10T06:58:07;15.30;83.80
23233;DHT22;11785;49.500;8.288;2023-05-10T07:00:32;15.40;83.10
23233;DHT22;11785;49.500;8.288;2023-05-10T07:02:58;15.40;80.70
23233;DHT22;11785;49.500;8.288;2023-05-10T07:05:24;15.50;78.40
23233;DHT22;11785;49.500;8.288;2023-05-10T07:07:49;15.50;77.20
23233;DHT22;11785;49.500;8.288;2023-05-10T07:10:15;15.60;75.30
23233;DHT22;11785;49.500;8.288;2023-05-10T07:12:41;15.70;74.00
23233;DHT22;11785;49.500;8.288;2023-05-10T07:15:07;15.80;72.10
23233;DHT22;11785;49.500;8.288;2023-05-10T07:17:33;15.80;71.10
23233;DHT22;11785;49.500;8.288;2023-05-10T07:19:59;15.90;71.30
23233;DHT22;11785;49.500;8.288;2023-05-10T07:22:25;16.00;70.30
23233;DHT22;11785;49.500;8.288;2023-05-10T07:24:51;16.20;66.70
23233;DHT22;11785;49.500;8.288;2023-05-10T07:27:16;16.40;63.40
23233;DHT22;11785;49.500;8.288;2023-05-10T07:29:42;16.50;62.20
23233;DHT22;11785;49.500;8.288;2023-05-10T07:32:07;16.60;60.70
23233;DHT22;11785;49.500;8.288;2023-05-10T07:34:33;16.60;59.90
23233;DHT22;11785;49.500;8.288;2023-05-10T07:36:59;16.80;59.90
23233;DHT22;11785;49.500;8.288;2023-05-10T07:39:25;16.80;59.90
23233;DHT22;11785;49.500;8.288;2023-05-10T07:41:51;16.70;59.90
23233;DHT22;11785;49.500;8.288;2023-05-10T07:44:16;16.70;59.90
23233;DHT22;11785;49.500;8.288;2023-05-10T07:46:44;16.90;59.90
23233;DHT22;11785;49.500;8.288;2023-05-10T07:49:09;17.10;59.80
23233;DHT22;11785;49.500;8.288;2023-05-10T07:51:35;17.30;59.70
23233;DHT22;11785;49.500;8.288;2023-05-10T07:54:01;17.50;59.70
23233;DHT22;11785;49.500;8.288;2023-05-10T07:56:31;17.70;59.60
23233;DHT22;11785;49.500;8.288;2023-05-10T07:58:58;17.90;59.50
23233;DHT22;11785;49.500;8.288;2023-05-10T08:01:25;18.00;59.40
23233;DHT22;11785;49.500;8.288;2023-05-10T08:03:51;18.00;59.40
23233;DHT22;11785;49.500;8.288;2023-05-10T08:06:19;18.20;59.40
23233;DHT22;11785;49.500;8.288;2023-05-10T08:08:48;18.20;59.30
23233;DHT22;11785;49.500;8.288;2023-05-10T08:11:19;18.40;59.30
23233;DHT22;11785;49.500;8.288;2023-05-10T08:13:46;18.50;59.30
23233;DHT22;11785;49.500;8.288;2023-05-10T08:16:12;18.40;59.20
23233;DHT22;11785;49.500;8.288;2023-05-10T08:18:38;18.30;59.20
23233;DHT22;11785;49.500;8.288;2023-05-10T08:21:04;18.00;59.30
23233;DHT22;11785;49.500;8.288;2023-05-10T08:23:30;17.40;59.40
23233;DHT22;11785;49.500;8.288;2023-05-10T08:25:55;17.10;59.50
23233;DHT22;11785;49.500;8.288;2023-05-10T08:28:21;16.90;59.60
23233;DHT22;11785;49.500;8.288;2023-05-10T08:30:46;16.80;59.70
23233;DHT22;11785;49.500;8.288;2023-05-10T08:33:12;16.80;59.70
23233;DHT22;11785;49.500;8.288;2023-05-10T08:35:37;16.70;59.70
23233;DHT22;11785;49.500;8.288;2023-05-10T08:38:03;16.60;59.70
23233;DHT22;11785;49.500;8.288;2023-05-10T08:40:28;16.70;59.70
23233;DHT22;11785;49.500;8.288;2023-05-10T08:42:59;17.00;59.70
23233;DHT22;11785;49.500;8.288;2023-05-10T08:45:27;17.30;59.60
23233;DHT22;11785;49.500;8.288;2023-05-10T08:47:57;17.50;59.50
23233;DHT22;11785;49.500;8.288;2023-05-10T08:50:23;17.90;59.40
23233;DHT22;11785;49.500;8.288;2023-05-10T08:52:51;17.90;59.30
23233;DHT22;11785;49.500;8.288;2023-05-10T08:55:18;17.90;59.30
23233;DHT22;11785;49.500;8.288;2023-05-10T08:57:44;18.10;59.20
23233;DHT22;11785;49.500;8.288;2023-05-10T09:00:10;18.30;59.10
23233;DHT22;11785;49.500;8.288;2023-05-10T09:02:37;18.50;59.10
23233;DHT22;11785;49.500;8.288;2023-05-10T09:05:03;18.60;59.00
23233;DHT22;11785;49.500;8.288;2023-05-10T09:07:30;18.50;59.00
23233;DHT22;11785;49.500;8.288;2023-05-10T09:09:56;18.30;59.10
23233;DHT22;11785;49.500;8.288;2023-05-10T09:12:22;18.00;59.10
23233;DHT22;11785;49.500;8.288;2023-05-10T09:14:50;17.70;59.20
23233;DHT22;11785;49.500;8.288;2023-05-10T09:17:17;17.60;59.20
23233;DHT22;11785;49.500;8.288;2023-05-10T09:19:42;17.50;59.30
23233;DHT22;11785;49.500;8.288;2023-05-10T09:22:10;17.30;59.30
23233;DHT22;11785;49.500;8.288;2023-05-10T09:24:35;17.10;59.30
23233;DHT22;11785;49.500;8.288;2023-05-10T09:27:02;16.90;59.40
23233;DHT22;11785;49.500;8.288;2023-05-10T09:29:42;16.90;59.40
23233;DHT22;11785;49.500;8.288;2023-05-10T09:32:08;16.80;59.40
23233;DHT22;11785;49.500;8.288;2023-05-10T09:34:33;16.80;59.50
23233;DHT22;11785;49.500;8.288;2023-05-10T09:37:02;16.80;59.40
23233;DHT22;11785;49.500;8.288;2023-05-10T09:39:36;16.70;59.50
23233;DHT22;11785;49.500;8.288;2023-05-10T09:42:07;16.60;59.50
23233;DHT22;11785;49.500;8.288;2023-05-10T09:44:34;16.70;59.40
23233;DHT22;11785;49.500;8.288;2023-05-10T09:47:03;16.80;59.40
23233;DHT22;11785;49.500;8.288;2023-05-10T09:49:29;17.00;59.40
23233;DHT22;11785;49.500;8.288;2023-05-10T09:52:02;17.20;59.30
23233;DHT22;11785;49.500;8.288;2023-05-10T09:54:28;17.10;59.30
23233;DHT22;11785;49.500;8.288;2023-05-10T09:56:54;16.90;59.40
23233;DHT22;11785;49.500;8.288;2023-05-10T09:59:20;16.50;59.40
23233;DHT22;11785;49.500;8.288;2023-05-10T10:01:52;16.50;59.50
23233;DHT22;11785;49.500;8.288;2023-05-10T10:04:17;16.30;59.50
23233;DHT22;11785;49.500;8.288;2023-05-10T10:06:45;16.20;59.50
23233;DHT22;11785;49.500;8.288;2023-05-10T10:09:10;16.10;59.50
23233;DHT22;11785;49.500;8.288;2023-05-10T10:11:37;16.00;59.60
23233;DHT22;11785;49.500;8.288;2023-05-10T10:14:04;16.10;59.50
23233;DHT22;11785;49.500;8.288;2023-05-10T10:16:30;16.50;59.50
23233;DHT22;11785;49.500;8.288;2023-05-10T10:18:56;17.00;59.40
23233;DHT22;11785;49.500;8.288;2023-05-10T10:21:22;17.80;59.10
23233;DHT22;11785;49.500;8.288;2023-05-10T10:23:48;18.30;59.00
23233;DHT22;11785;49.500;8.288;2023-05-10T10:26:14;18.70;58.80
23233;DHT22;11785;49.500;8.288;2023-05-10T10:34:26;19.60;58.50
23233;DHT22;11785;49.500;8.288;2023-05-10T10:36:56;20.00;58.30
23233;DHT22;11785;49.500;8.288;2023-05-10T10:39:22;20.20;58.30
23233;DHT22;11785;49.500;8.288;2023-05-10T10:41:58;20.40;58.20
23233;DHT22;11785;49.500;8.288;2023-05-10T10:44:37;20.20;58.20
23233;DHT22;11785;49.500;8.288;2023-05-10T10:50:05;19.50;58.30
23233;DHT22;11785;49.500;8.288;2023-05-10T10:52:32;19.00;58.50
23233;DHT22;11785;49.500;8.288;2023-05-10T10:57:28;18.10;58.70
23233;DHT22;11785;49.500;8.288;2023-05-10T11:03:11;17.80;58.90
23233;DHT22;11785;49.500;8.288;2023-05-10T11:05:44;17.70;58.90
23233;DHT22;11785;49.500;8.288;2023-05-10T11:08:13;17.60;58.80
23233;DHT22;11785;49.500;8.288;2023-05-10T11:10:40;17.70;58.80
23233;DHT22;11785;49.500;8.288;2023-05-10T11:13:08;17.80;58.80
23233;DHT22;11785;49.500;8.288;2023-05-10T11:15:48;18.10;58.70
23233;DHT22;11785;49.500;8.288;2023-05-10T11:18:23;18.30;58.60
23233;DHT22;11785;49.500;8.288;2023-05-10T11:20:57;18.30;58.60
23233;DHT22;11785;49.500;8.288;2023-05-10T11:23:23;18.50;58.50
23233;DHT22;11785;49.500;8.288;2023-05-10T11:25:49;18.90;58.40
23233;DHT22;11785;49.500;8.288;2023-05-10T11:28:17;19.30;58.30
23233;DHT22;11785;49.500;8.288;2023-05-10T11:30:44;19.80;58.20
23233;DHT22;11785;49.500;8.288;2023-05-10T11:33:16;20.30;58.00
23233;DHT22;11785;49.500;8.288;2023-05-10T11:35:42;20.30;58.00
23233;DHT22;11785;49.500;8.288;2023-05-10T11:38:12;20.30;58.00
23233;DHT22;11785;49.500;8.288;2023-05-10T11:40:38;20.20;58.00
23233;DHT22;11785;49.500;8.288;2023-05-10T11:43:04;20.30;58.00
23233;DHT22;11785;49.500;8.288;2023-05-10T11:45:35;20.30;57.90
23233;DHT22;11785;49.500;8.288;2023-05-10T11:48:01;20.10;58.00
23233;DHT22;11785;49.500;8.288;2023-05-10T11:50:28;19.90;58.00
23233;DHT22;11785;49.500;8.288;2023-05-10T11:52:56;19.90;58.00
23233;DHT22;11785;49.500;8.288;2023-05-10T11:55:22;19.70;58.10
23233;DHT22;11785;49.500;8.288;2023-05-10T11:57:53;19.60;58.00
23233;DHT22;11785;49.500;8.288;2023-05-10T12:00:19;19.30;58.00
23233;DHT22;11785;49.500;8.288;2023-05-10T12:02:45;19.20;58.10
23233;DHT22;11785;49.500;8.288;2023-05-10T12:05:12;19.20;58.10
23233;DHT22;11785;49.500;8.288;2023-05-10T12:07:38;19.40;58.00
23233;DHT22;11785;49.500;8.288;2023-05-10T12:10:10;19.40;58.00
23233;DHT22;11785;49.500;8.288;2023-05-10T12:12:44;19.30;58.00
23233;DHT22;11785;49.500;8.288;2023-05-10T12:15:20;19.20;58.00
23233;DHT22;11785;49.500;8.288;2023-05-10T12:17:47;18.40;58.30
23233;DHT22;11785;49.500;8.288;2023-05-10T12:20:14;18.10;58.40
23233;DHT22;11785;49.500;8.288;2023-05-10T12:22:43;18.20;58.40
23233;DHT22;11785;49.500;8.288;2023-05-10T12:25:09;18.40;58.30
23233;DHT22;11785;49.500;8.288;2023-05-10T12:27:35;18.20;58.40
23233;DHT22;11785;49.500;8.288;2023-05-10T12:30:02;18.20;58.40
23233;DHT22;11785;49.500;8.288;2023-05-10T12:32:40;18.10;58.40
23233;DHT22;11785;49.500;8.288;2023-05-10T12:35:07;18.00;58.40
23233;DHT22;11785;49.500;8.288;2023-05-10T12:37:34;18.10;58.40
23233;DHT22;11785;49.500;8.288;2023-05-10T12:40:06;18.10;58.40
23233;DHT22;11785;49.500;8.288;2023-05-10T12:42:32;18.60;58.30
23233;DHT22;11785;49.500;8.288;2023-05-10T12:44:57;19.00;58.20
23233;DHT22;11785;49.500;8.288;2023-05-10T12:47:23;19.00;58.20
23233;DHT22;11785;49.500;8.288;2023-05-10T12:49:49;19.20;58.10
23233;DHT22;11785;49.500;8.288;2023-05-10T12:52:14;18.90;58.10
23233;DHT22;11785;49.500;8.288;2023-05-10T12:54:40;18.80;58.20
23233;DHT22;11785;49.500;8.288;2023-05-10T12:57:05;19.00;58.10
23233;DHT22;11785;49.500;8.288;2023-05-10T12:59:31;19.50;58.00
23233;DHT22;11785;49.500;8.288;2023-05-10T13:01:57;19.50;57.90
23233;DHT22;11785;49.500;8.288;2023-05-10T13:04:23;19.60;57.80
23233;DHT22;11785;49.500;8.288;2023-05-10T13:06:48;20.00;57.70
23233;DHT22;11785;49.500;8.288;2023-05-10T13:09:14;20.90;57.50
23233;DHT22;11785;49.500;8.288;2023-05-10T13:11:40;22.10;57.30
23233;DHT22;11785;49.500;8.288;2023-05-10T13:14:06;23.00;56.90
23233;DHT22;11785;49.500;8.288;2023-05-10T13:16:32;23.00;56.80
23233;DHT22;11785;49.500;8.288;2023-05-10T13:18:58;23.60;56.70
23233;DHT22;11785;49.500;8.288;2023-05-10T13:21:23;23.70;56.60
23233;DHT22;11785;49.500;8.288;2023-05-10T13:23:50;23.80;56.60
23233;DHT22;11785;49.500;8.288;2023-05-10T13:26:16;24.60;56.30
23233;DHT22;11785;49.500;8.288;2023-05-10T13:28:41;24.80;56.20
23233;DHT22;11785;49.500;8.288;2023-05-10T13:31:07;24.40;56.30
23233;DHT22;11785;49.500;8.288;2023-05-10T13:33:33;24.00;56.30
23233;DHT22;11785;49.500;8.288;2023-05-10T13:35:58;24.00;56.40
23233;DHT22;11785;49.500;8.288;2023-05-10T13:38:24;23.70;56.40
23233;DHT22;11785;49.500;8.288;2023-05-10T13:40:49;23.50;56.50
23233;DHT22;11785;49.500;8.288;2023-05-10T13:43:18;23.40;56.50
23233;DHT22;11785;49.500;8.288;2023-05-10T13:45:44;23.30;56.50
23233;DHT22;11785;49.500;8.288;2023-05-10T13:48:12;22.90;56.50
23233;DHT22;11785;49.500;8.288;2023-05-10T13:50:38;22.90;56.50
23233;DHT22;11785;49.500;8.288;2023-05-10T13:53:03;22.90;56.50
23233;DHT22;11785;49.500;8.288;2023-05-10T13:55:29;22.60;56.50
23233;DHT22;11785;49.500;8.288;2023-05-10T13:57:55;22.50;56.50
23233;DHT22;11785;49.500;8.288;2023-05-10T14:00:20;21.90;56.70
23233;DHT22;11785;49.500;8.288;2023-05-10T14:02:46;21.90;56.80
23233;DHT22;11785;49.500;8.288;2023-05-10T14:05:11;21.80;56.70
23233;DHT22;11785;49.500;8.288;2023-05-10T14:07:37;21.30;56.80
23233;DHT22;11785;49.500;8.288;2023-05-10T14:10:03;22.00;56.70
23233;DHT22;11785;49.500;8.288;2023-05-10T14:12:29;21.50;56.80
23233;DHT22;11785;49.500;8.288;2023-05-10T14:14:55;21.50;56.80
23233;DHT22;11785;49.500;8.288;2023-05-10T14:17:21;21.80;56.70
23233;DHT22;11785;49.500;8.288;2023-05-10T14:19:47;22.60;56.60
23233;DHT22;11785;49.500;8.288;2023-05-10T14:22:13;23.10;56.40
23233;DHT22;11785;49.500;8.288;2023-05-10T14:24:38;23.60;56.30
23233;DHT22;11785;49.500;8.288;2023-05-10T14:27:04;23.20;56.30
23233;DHT22;11785;49.500;8.288;2023-05-10T14:29:29;23.30;56.30
23233;DHT22;11785;49.500;8.288;2023-05-10T14:31:55;23.30;56.40
23233;DHT22;11785;49.500;8.288;2023-05-10T14:34:21;23.20;56.30
23233;DHT22;11785;49.500;8.288;2023-05-10T14:36:46;22.70;56.40
23233;DHT22;11785;49.500;8.288;2023-05-10T14:39:12;22.60;56.40
23233;DHT22;11785;49.500;8.288;2023-05-10T14:41:38;22.80;56.40
23233;DHT22;11785;49.500;8.288;2023-05-10T14:44:06;23.20;56.30
23233;DHT22;11785;49.500;8.288;2023-05-10T14:46:32;23.50;56.20
23233;DHT22;11785;49.500;8.288;2023-05-10T14:48:57;23.40;56.30
23233;DHT22;11785;49.500;8.288;2023-05-10T14:51:23;23.40;56.10
23233;DHT22;11785;49.500;8.288;2023-05-10T14:53:49;23.20;56.30
23233;DHT22;11785;49.500;8.288;2023-05-10T14:56:15;23.50;56.20
23233;DHT22;11785;49.500;8.288;2023-05-10T14:58:40;23.60;56.10
23233;DHT22;11785;49.500;8.288;2023-05-10T15:01:06;23.10;56.20
23233;DHT22;11785;49.500;8.288;2023-05-10T15:03:31;22.90;56.20
23233;DHT22;11785;49.500;8.288;2023-05-10T15:05:57;22.90;56.30
23233;DHT22;11785;49.500;8.288;2023-05-10T15:08:23;23.20;56.20
23233;DHT22;11785;49.500;8.288;2023-05-10T15:10:50;22.80;56.30
23233;DHT22;11785;49.500;8.288;2023-05-10T15:13:17;23.00;56.20
23233;DHT22;11785;49.500;8.288;2023-05-10T15:15:43;23.00;56.20
23233;DHT22;11785;49.500;8.288;2023-05-10T15:18:09;22.90;56.30
23233;DHT22;11785;49.500;8.288;2023-05-10T15:20:35;22.80;56.30
23233;DHT22;11785;49.500;8.288;2023-05-10T15:23:01;23.00;56.30
23233;DHT22;11785;49.500;8.288;2023-05-10T15:25:27;22.70;56.30
23233;DHT22;11785;49.500;8.288;2023-05-10T15:27:54;22.50;56.30
23233;DHT22;11785;49.500;8.288;2023-05-10T15:30:19;22.60;56.30
23233;DHT22;11785;49.500;8.288;2023-05-10T15:32:45;22.90;56.30
23233;DHT22;11785;49.500;8.288;2023-05-10T15:35:10;23.00;56.30
23233;DHT22;11785;49.500;8.288;2023-05-10T15:37:37;22.70;56.30
23233;DHT22;11785;49.500;8.288;2023-05-10T15:40:06;22.40;56.40
23233;DHT22;11785;49.500;8.288;2023-05-10T15:42:32;22.30;56.40
23233;DHT22;11785;49.500;8.288;2023-05-10T15:44:58;22.10;56.40
23233;DHT22;11785;49.500;8.288;2023-05-10T15:47:26;21.90;56.50
23233;DHT22;11785;49.500;8.288;2023-05-10T15:49:55;21.90;56.50
23233;DHT22;11785;49.500;8.288;2023-05-10T15:52:21;21.70;56.60
23233;DHT22;11785;49.500;8.288;2023-05-10T15:54:48;21.70;56.60
23233;DHT22;11785;49.500;8.288;2023-05-10T15:57:13;21.60;56.60
23233;DHT22;11785;49.500;8.288;2023-05-10T15:59:39;21.30;56.70